Time;durP1;ratioP1;P1;durP2;ratioP2;P2;SDS_P1;SDS_P2;PMS_P1;PMS_P2;Temp;Humidity;BMP_temperature;BMP_pressure;BME280_temperature;BME280_humidity;BME280_pressure;Samples;Min_cycle;Max_cycle;Signal;HPM_P1;HPM_P2
2023/04/29 00:01:43;;;;;;;100.70;48.53;;;;;;;-144.87;100.00;61487.56;4931503;28;20035;-80
2023/04/29 00:04:09;;;;;;;116.97;48.70;;;;;;;-144.87;100.00;61487.56;4929996;29;20061;-80
2023/04/29 00:06:36;;;;;;;106.05;50.83;;;;;;;-144.87;100.00;61487.56;4938019;28;20074;-80
2023/04/29 00:09:03;;;;;;;95.15;47.63;;;;;;;-144.87;100.00;61487.56;4972860;28;20035;-80
2023/04/29 00:11:29;;;;;;;87.05;46.97;;;;;;;-144.87;100.00;61487.56;4927335;29;20071;-80
2023/04/29 00:13:56;;;;;;;92.22;46.50;;;;;;;-144.87;100.00;61487.56;4952466;28;20046;-80
2023/04/29 00:16:22;;;;;;;84.82;45.47;;;;;;;-144.87;100.00;61487.56;4942522;29;20560;-80
2023/04/29 00:18:48;;;;;;;81.63;43.92;;;;;;;-144.87;100.00;61487.56;4919432;28;20041;-80
2023/04/29 00:21:15;;;;;;;86.43;43.55;;;;;;;-144.87;100.00;61487.56;4935167;29;20039;-81
2023/04/29 00:23:41;;;;;;;86.55;45.08;;;;;;;-144.87;100.00;61487.56;4919954;29;20051;-88
2023/04/29 00:26:07;;;;;;;82.28;43.28;;;;;;;-144.87;100.00;61487.56;4935775;29;20386;-80
2023/04/29 00:28:34;;;;;;;84.25;43.15;;;;;;;-144.87;100.00;61487.56;4953872;28;20047;-80
2023/04/29 00:31:00;;;;;;;73.68;41.85;;;;;;;-144.87;100.00;61487.56;4935498;29;20110;-79
2023/04/29 00:33:26;;;;;;;79.18;42.33;;;;;;;-144.87;100.00;61487.56;4914062;29;20036;-80
2023/04/29 00:35:52;;;;;;;82.05;43.25;;;;;;;-144.87;100.00;61487.56;4921015;29;20093;-80
2023/04/29 00:38:20;;;;;;;83.38;43.10;;;;;;;-144.87;100.00;61487.56;4909809;29;20032;-79
2023/04/29 00:40:46;;;;;;;81.32;39.83;;;;;;;-144.87;100.00;61487.56;4935773;29;20432;-80
2023/04/29 00:43:12;;;;;;;76.63;40.03;;;;;;;-144.87;100.00;61487.56;4933508;29;20059;-80
2023/04/29 00:45:39;;;;;;;77.97;39.50;;;;;;;-144.87;100.00;61487.56;4935411;29;20142;-80
2023/04/29 00:48:05;;;;;;;67.43;37.92;;;;;;;-144.87;100.00;61487.56;4947364;28;20094;-79
2023/04/29 00:50:32;;;;;;;67.72;35.72;;;;;;;-144.87;100.00;61487.56;4935136;29;20114;-79
2023/04/29 00:52:59;;;;;;;57.95;33.75;;;;;;;-144.87;100.00;61487.56;4951071;28;20046;-80
2023/04/29 00:55:25;;;;;;;59.47;31.58;;;;;;;-144.87;100.00;61487.56;4934187;29;20086;-80
2023/04/29 00:57:52;;;;;;;57.20;31.58;;;;;;;-144.87;100.00;61487.56;4918898;29;20070;-80
2023/04/29 01:00:19;;;;;;;56.20;29.92;;;;;;;-144.87;100.00;61487.56;4918871;29;20066;-79
2023/04/29 01:02:46;;;;;;;59.17;30.15;;;;;;;-144.87;100.00;61487.56;4933938;29;20057;-83
2023/04/29 01:05:13;;;;;;;52.78;30.00;;;;;;;-144.87;100.00;61487.56;4935248;29;20038;-80
2023/04/29 01:08:16;;;;;;;57.45;30.30;;;;;;;-144.87;100.00;61487.56;4932686;29;20082;-79
2023/04/29 01:11:00;;;;;;;57.28;30.58;;;;;;;-144.87;100.00;61487.56;4944605;29;20043;-80
2023/04/29 01:13:29;;;;;;;54.53;31.73;;;;;;;-144.87;100.00;61487.56;4916382;29;20481;-80
2023/04/29 01:16:12;;;;;;;55.90;31.77;;;;;;;-144.87;100.00;61487.56;4919437;29;20046;-79
2023/04/29 01:18:40;;;;;;;60.85;33.00;;;;;;;-144.87;100.00;61487.56;4918454;29;20493;-80
2023/04/29 01:21:06;;;;;;;60.67;33.28;;;;;;;-144.87;100.00;61487.56;4918972;29;20505;-80
2023/04/29 01:23:33;;;;;;;64.25;32.17;;;;;;;-144.87;100.00;61487.56;4923175;29;20042;-80
2023/04/29 01:25:59;;;;;;;64.47;33.80;;;;;;;-144.87;100.00;61487.56;4952008;29;20043;-80
2023/04/29 01:28:59;;;;;;;63.22;33.55;;;;;;;-144.87;100.00;61487.56;4934223;29;20071;-80
2023/04/29 01:31:40;;;;;;;59.42;34.33;;;;;;;-144.87;100.00;61487.56;4926043;28;20031;-80
2023/04/29 01:34:22;;;;;;;60.75;33.65;;;;;;;-144.87;100.00;61487.56;4918709;29;20122;-80
2023/04/29 01:37:17;;;;;;;59.95;33.30;;;;;;;-144.87;100.00;61487.56;4934944;29;20047;-80
2023/04/29 01:39:58;;;;;;;61.53;31.63;;;;;;;-144.87;100.00;61487.56;4921196;29;20503;-80
2023/04/29 01:42:40;;;;;;;56.35;32.08;;;;;;;-144.87;100.00;61487.56;4920304;28;20035;-80
2023/04/29 01:45:17;;;;;;;55.05;31.25;;;;;;;-144.87;100.00;61487.56;4919732;29;20044;-80
2023/04/29 01:47:46;;;;;;;53.80;31.73;;;;;;;-144.87;100.00;61487.56;4911932;28;20031;-80
2023/04/29 01:50:12;;;;;;;54.25;31.70;;;;;;;-144.87;100.00;61487.56;4937369;29;20409;-80
2023/04/29 01:52:39;;;;;;;55.50;31.52;;;;;;;-144.87;100.00;61487.56;4920478;29;20046;-80
2023/04/29 01:55:05;;;;;;;55.47;32.30;;;;;;;-144.87;100.00;61487.56;4937157;29;20035;-79
2023/04/29 01:58:01;;;;;;;53.20;31.13;;;;;;;-144.87;100.00;61487.56;4939267;28;20039;-80
2023/04/29 02:00:47;;;;;;;53.97;29.55;;;;;;;-144.87;100.00;61487.56;4935100;29;20429;-79
2023/04/29 02:03:13;;;;;;;52.28;29.27;;;;;;;-144.87;100.00;61487.56;4917282;29;20063;-79
2023/04/29 02:05:43;;;;;;;53.17;28.73;;;;;;;-144.87;100.00;61487.56;4919338;29;20464;-80
2023/04/29 02:08:10;;;;;;;47.70;27.35;;;;;;;-144.87;100.00;61487.56;4919263;29;20039;-80
2023/04/29 02:10:40;;;;;;;44.58;26.83;;;;;;;-144.87;100.00;61487.56;4937071;29;20104;-80
2023/04/29 02:13:30;;;;;;;46.05;25.52;;;;;;;-144.87;100.00;61487.56;4946483;28;20074;-80
2023/04/29 02:15:57;;;;;;;47.20;24.65;;;;;;;-144.87;100.00;61487.56;4953690;28;20147;-80
2023/04/29 02:18:23;;;;;;;35.90;23.77;;;;;;;-144.87;100.00;61487.56;4937958;29;20539;-80
2023/04/29 02:20:50;;;;;;;39.30;23.40;;;;;;;-144.87;100.00;61487.56;4959177;28;20043;-81
2023/04/29 02:23:16;;;;;;;41.55;24.88;;;;;;;-144.87;100.00;61487.56;4927164;29;20028;-80
2023/04/29 02:25:43;;;;;;;47.63;25.30;;;;;;;-144.87;100.00;61487.56;4934360;29;20548;-80
2023/04/29 02:28:09;;;;;;;45.60;26.65;;;;;;;-144.87;100.00;61487.56;4936404;29;20083;-80
2023/04/29 02:30:39;;;;;;;45.58;27.15;;;;;;;-144.87;100.00;61487.56;4920841;29;20046;-79
2023/04/29 02:33:05;;;;;;;57.88;29.75;;;;;;;-144.87;100.00;61487.56;4921561;29;20070;-80
2023/04/29 02:35:31;;;;;;;57.20;28.90;;;;;;;-144.87;100.00;61487.56;4920378;29;20099;-80
2023/04/29 02:37:58;;;;;;;47.30;28.70;;;;;;;-144.87;100.00;61487.56;4954805;29;20089;-80
2023/04/29 02:40:25;;;;;;;49.40;27.00;;;;;;;-144.87;100.00;61487.56;4935300;29;20126;-80
2023/04/29 02:42:52;;;;;;;56.72;28.60;;;;;;;-144.87;100.00;61487.56;4917947;29;20527;-79
2023/04/29 02:45:18;;;;;;;51.00;28.48;;;;;;;-144.87;100.00;61487.56;4943998;28;20086;-80
2023/04/29 02:47:44;;;;;;;58.13;28.67;;;;;;;-144.87;100.00;61487.56;4920679;29;20382;-80
2023/04/29 02:50:11;;;;;;;53.42;27.98;;;;;;;-144.87;100.00;61487.56;4911243;29;21717;-79
2023/04/29 02:52:40;;;;;;;57.03;30.48;;;;;;;-144.87;100.00;61487.56;4902500;29;20102;-79
2023/04/29 02:55:08;;;;;;;59.05;29.80;;;;;;;-144.87;100.00;61487.56;4946535;29;20091;-79
2023/04/29 02:57:34;;;;;;;59.03;29.63;;;;;;;-144.87;100.00;61487.56;4925612;29;20082;-79
2023/04/29 03:00:03;;;;;;;53.38;30.15;;;;;;;-144.87;100.00;61487.56;4917103;29;20058;-80
2023/04/29 03:02:29;;;;;;;61.00;31.20;;;;;;;-144.87;100.00;61487.56;4953972;28;20039;-79
2023/04/29 03:04:58;;;;;;;59.65;32.30;;;;;;;-144.87;100.00;61487.56;4950184;29;20501;-80
2023/04/29 03:07:24;;;;;;;59.58;30.50;;;;;;;-144.87;100.00;61487.56;4936884;29;20409;-80
2023/04/29 03:09:51;;;;;;;57.88;30.67;;;;;;;-144.87;100.00;61487.56;4920431;29;20055;-80
2023/04/29 03:12:18;;;;;;;53.10;30.55;;;;;;;-144.87;100.00;61487.56;4951863;28;20082;-80
2023/04/29 03:14:46;;;;;;;57.00;30.90;;;;;;;-144.87;100.00;61487.56;4935827;29;20054;-82
2023/04/29 03:17:13;;;;;;;56.00;28.75;;;;;;;-144.87;100.00;61487.56;4936599;29;20098;-80
2023/04/29 03:19:39;;;;;;;51.35;28.33;;;;;;;-144.87;100.00;61487.56;4942794;29;20508;-80
2023/04/29 03:22:08;;;;;;;59.03;29.15;;;;;;;-144.87;100.00;61487.56;4934577;29;20046;-80
2023/04/29 03:24:35;;;;;;;52.38;28.88;;;;;;;-144.87;100.00;61487.56;4936355;29;20366;-80
2023/04/29 03:27:01;;;;;;;57.97;28.90;;;;;;;-144.87;100.00;61487.56;4917438;29;20032;-80
2023/04/29 03:29:27;;;;;;;46.67;28.02;;;;;;;-144.87;100.00;61487.56;4941908;29;20043;-79
2023/04/29 03:31:56;;;;;;;49.78;29.42;;;;;;;-144.87;100.00;61487.56;4948359;29;20067;-79
2023/04/29 03:34:23;;;;;;;50.10;29.95;;;;;;;-144.87;100.00;61487.56;4931021;29;20035;-80
2023/04/29 03:37:01;;;;;;;50.58;28.23;;;;;;;-144.87;100.00;61487.56;4920715;28;20039;-81
2023/04/29 03:39:31;;;;;;;48.03;29.33;;;;;;;-144.87;100.00;61487.56;4935906;29;20035;-80
2023/04/29 03:41:58;;;;;;;47.72;27.98;;;;;;;-144.87;100.00;61487.56;4919721;29;20042;-79
2023/04/29 03:44:25;;;;;;;57.15;28.80;;;;;;;-144.87;100.00;61487.56;4917995;29;20039;-79
2023/04/29 03:46:51;;;;;;;53.65;28.42;;;;;;;-144.87;100.00;61487.56;4927463;29;20039;-80
2023/04/29 03:49:18;;;;;;;53.28;29.75;;;;;;;-144.87;100.00;61487.56;4920096;29;20035;-77
2023/04/29 03:51:44;;;;;;;52.88;29.48;;;;;;;-144.87;100.00;61487.56;4951713;29;20051;-79
2023/04/29 03:54:14;;;;;;;54.85;29.55;;;;;;;-144.87;100.00;61487.56;4935444;29;20500;-77
2023/04/29 03:56:42;;;;;;;54.65;28.85;;;;;;;-144.87;100.00;61487.56;4918320;28;20130;-78
2023/04/29 03:59:08;;;;;;;54.25;31.40;;;;;;;-144.87;100.00;61487.56;4932291;29;20083;-78
2023/04/29 04:01:36;;;;;;;54.38;31.55;;;;;;;-144.87;100.00;61487.56;4919478;29;20043;-78
2023/04/29 04:04:03;;;;;;;56.17;33.00;;;;;;;-144.87;100.00;61487.56;4951179;28;20031;-76
2023/04/29 04:06:30;;;;;;;59.75;31.45;;;;;;;-144.87;100.00;61487.56;4916475;29;20353;-78
2023/04/29 04:08:58;;;;;;;55.67;31.70;;;;;;;-144.87;100.00;61487.56;4953177;29;20031;-77
2023/04/29 04:11:28;;;;;;;53.47;31.27;;;;;;;-144.87;100.00;61487.56;4935190;29;20063;-77
2023/04/29 04:13:57;;;;;;;61.25;32.10;;;;;;;-144.87;100.00;61487.56;4932018;28;20034;-77
2023/04/29 04:16:24;;;;;;;61.22;32.15;;;;;;;-144.87;100.00;61487.56;4935381;29;20039;-77
2023/04/29 04:18:51;;;;;;;61.10;32.30;;;;;;;-144.87;100.00;61487.56;4935628;29;20050;-78
2023/04/29 04:21:17;;;;;;;60.50;32.72;;;;;;;-144.87;100.00;61487.56;4930053;29;20053;-77
2023/04/29 04:23:50;;;;;;;62.08;34.28;;;;;;;-144.87;100.00;61487.56;4902561;29;20032;-78
2023/04/29 04:26:21;;;;;;;65.25;35.28;;;;;;;-144.87;100.00;61487.56;4932257;29;20570;-77
2023/04/29 04:29:17;;;;;;;63.88;34.15;;;;;;;-144.87;100.00;61487.56;4942327;28;20046;-78
2023/04/29 04:31:49;;;;;;;60.90;34.45;;;;;;;-144.87;100.00;61487.56;4934649;29;20113;-76
2023/04/29 04:34:18;;;;;;;61.83;34.47;;;;;;;-144.87;100.00;61487.56;4951100;29;20082;-77
2023/04/29 04:36:47;;;;;;;63.23;35.03;;;;;;;-144.87;100.00;61487.56;4919023;29;20139;-78
2023/04/29 04:39:13;;;;;;;66.40;34.92;;;;;;;-144.87;100.00;61487.56;4921796;28;20035;-78
2023/04/29 04:41:40;;;;;;;61.30;33.90;;;;;;;-144.87;100.00;61487.56;4917849;29;20118;-78
2023/04/29 04:44:07;;;;;;;57.15;33.33;;;;;;;-144.87;100.00;61487.56;4935145;29;20396;-76
2023/04/29 04:46:53;;;;;;;60.65;34.50;;;;;;;-144.87;100.00;61487.56;4925485;29;20043;-76
2023/04/29 04:49:34;;;;;;;61.45;33.13;;;;;;;-144.87;100.00;61487.56;4949461;28;20047;-76
2023/04/29 04:52:00;;;;;;;61.25;34.33;;;;;;;-144.87;100.00;61487.56;4931092;29;20054;-76
2023/04/29 04:54:27;;;;;;;70.63;35.22;;;;;;;-144.87;100.00;61487.56;4912043;29;20075;-78
2023/04/29 04:57:04;;;;;;;60.17;33.58;;;;;;;-144.87;100.00;61487.56;4925504;29;20530;-76
2023/04/29 04:59:32;;;;;;;71.97;35.65;;;;;;;-144.87;100.00;61487.56;4901325;29;20457;-77
2023/04/29 05:01:59;;;;;;;67.53;35.95;;;;;;;-144.87;100.00;61487.56;4923437;29;20036;-76
2023/04/29 05:04:25;;;;;;;70.00;34.45;;;;;;;-144.87;100.00;61487.56;4902771;29;20115;-77
2023/04/29 05:06:51;;;;;;;72.72;37.53;;;;;;;-144.87;100.00;61487.56;4932496;29;20489;-78
2023/04/29 05:09:20;;;;;;;63.40;34.88;;;;;;;-144.87;100.00;61487.56;4932601;29;20149;-77
2023/04/29 05:11:46;;;;;;;59.08;33.50;;;;;;;-144.87;100.00;61487.56;4912222;29;20040;-76
2023/04/29 05:14:16;;;;;;;61.30;34.17;;;;;;;-144.87;100.00;61487.56;4930615;29;20102;-77
2023/04/29 05:16:45;;;;;;;57.65;32.05;;;;;;;-144.87;100.00;61487.56;4934462;29;20044;-77
2023/04/29 05:19:12;;;;;;;60.50;33.92;;;;;;;-144.87;100.00;61487.56;4919873;29;20042;-77
2023/04/29 05:21:39;;;;;;;59.15;33.53;;;;;;;-144.87;100.00;61487.56;4926374;29;20043;-77
2023/04/29 05:24:08;;;;;;;58.85;32.75;;;;;;;-144.87;100.00;61487.56;4934851;29;20059;-77
2023/04/29 05:26:34;;;;;;;57.88;30.73;;;;;;;-144.87;100.00;61487.56;4935897;29;20082;-78
2023/04/29 05:29:01;;;;;;;56.95;31.63;;;;;;;-144.87;100.00;61487.56;4918182;29;20044;-77
2023/04/29 05:31:32;;;;;;;54.50;31.42;;;;;;;-144.87;100.00;61487.56;4917161;29;20498;-78
2023/04/29 05:34:01;;;;;;;57.55;30.70;;;;;;;-144.87;100.00;61487.56;4943395;28;20082;-77
2023/04/29 05:36:27;;;;;;;58.65;30.27;;;;;;;-144.87;100.00;61487.56;4915281;29;20052;-78
2023/04/29 05:38:54;;;;;;;51.05;28.52;;;;;;;-144.87;100.00;61487.56;4933968;29;20398;-77
2023/04/29 05:41:20;;;;;;;49.17;27.02;;;;;;;-144.87;100.00;61487.56;4919487;29;20038;-77
2023/04/29 05:43:47;;;;;;;49.05;27.38;;;;;;;-144.87;100.00;61487.56;4933021;29;20144;-79
2023/04/29 05:46:15;;;;;;;46.63;27.02;;;;;;;-144.87;100.00;61487.56;4919355;29;20035;-77
2023/04/29 05:48:42;;;;;;;49.08;27.33;;;;;;;-144.87;100.00;61487.56;4919565;29;20058;-77
2023/04/29 05:51:10;;;;;;;41.45;25.33;;;;;;;-144.87;100.00;61487.56;4932096;29;20510;-77
2023/04/29 05:53:37;;;;;;;45.03;25.15;;;;;;;-144.87;100.00;61487.56;4933727;29;20043;-76
2023/04/29 05:56:07;;;;;;;41.78;23.10;;;;;;;-144.87;100.00;61487.56;4917469;29;20036;-78
2023/04/29 05:58:36;;;;;;;45.30;25.40;;;;;;;-144.87;100.00;61487.56;4915343;29;20044;-77
2023/04/29 06:01:03;;;;;;;60.25;25.52;;;;;;;-144.87;100.00;61487.56;4924978;29;20034;-76
2023/04/29 06:03:30;;;;;;;40.60;24.35;;;;;;;-144.87;100.00;61487.56;4927845;29;20118;-77
2023/04/29 06:06:16;;;;;;;41.42;23.08;;;;;;;-144.87;100.00;61487.56;4926459;29;20044;-77
2023/04/29 06:09:01;;;;;;;42.00;23.00;;;;;;;-144.87;100.00;61487.56;4926876;29;20106;-76
2023/04/29 06:11:30;;;;;;;46.60;24.27;;;;;;;-144.87;100.00;61487.56;4944412;28;20037;-76
2023/04/29 06:13:56;;;;;;;43.53;24.20;;;;;;;-144.87;100.00;61487.56;4932545;29;20054;-76
2023/04/29 06:16:23;;;;;;;43.90;25.10;;;;;;;-144.87;100.00;61487.56;4923762;29;20052;-77
2023/04/29 06:18:49;;;;;;;41.40;24.63;;;;;;;-144.87;100.00;61487.56;4913485;29;20201;-77
2023/04/29 06:21:15;;;;;;;43.17;24.35;;;;;;;-144.87;100.00;61487.56;4915886;29;20039;-76
2023/04/29 06:23:42;;;;;;;47.55;24.17;;;;;;;-144.87;100.00;61487.56;4916682;29;20036;-77
2023/04/29 06:26:15;;;;;;;42.03;23.33;;;;;;;-144.87;100.00;61487.56;4917107;29;20647;-76
2023/04/29 06:28:41;;;;;;;41.70;23.38;;;;;;;-144.87;100.00;61487.56;4930564;28;20036;-78
2023/04/29 06:31:08;;;;;;;41.40;22.80;;;;;;;-144.87;100.00;61487.56;4926248;29;21481;-79
2023/04/29 06:33:34;;;;;;;41.00;23.77;;;;;;;-144.87;100.00;61487.56;4929650;29;20637;-77
2023/04/29 06:36:00;;;;;;;41.60;22.70;;;;;;;-144.87;100.00;61487.56;4914043;29;20039;-77
2023/04/29 06:38:47;;;;;;;43.47;22.08;;;;;;;-144.87;100.00;61487.56;4910643;29;20040;-77
2023/04/29 06:41:30;;;;;;;47.80;25.23;;;;;;;-144.87;100.00;61487.56;4916711;29;20095;-76
2023/04/29 06:44:06;;;;;;;41.22;23.25;;;;;;;-144.87;100.00;61487.56;4934841;29;20040;-77
2023/04/29 06:46:51;;;;;;;49.53;24.13;;;;;;;-144.87;100.00;61487.56;4933768;29;20131;-75
2023/04/29 06:49:42;;;;;;;44.15;22.00;;;;;;;-144.87;100.00;61487.56;4919393;29;20454;-76
2023/04/29 06:52:09;;;;;;;45.17;23.35;;;;;;;-144.87;100.00;61487.56;4914341;29;20044;-75
2023/04/29 06:54:35;;;;;;;44.00;23.30;;;;;;;-144.87;100.00;61487.56;4929387;29;20453;-77
2023/04/29 06:57:01;;;;;;;45.80;23.48;;;;;;;-144.87;100.00;61487.56;4923945;29;20040;-76
2023/04/29 06:59:28;;;;;;;38.42;20.27;;;;;;;-144.87;100.00;61487.56;4942298;28;20095;-77
2023/04/29 07:01:54;;;;;;;35.90;21.25;;;;;;;-144.87;100.00;61487.56;4935529;29;20405;-77
2023/04/29 07:04:20;;;;;;;37.88;20.35;;;;;;;-144.87;100.00;61487.56;4934044;29;20044;-76
2023/04/29 07:06:47;;;;;;;35.97;19.70;;;;;;;-144.87;100.00;61487.56;4927998;29;20040;-77
2023/04/29 07:09:14;;;;;;;38.03;19.25;;;;;;;-144.87;100.00;61487.56;4934833;29;20122;-77
2023/04/29 07:11:40;;;;;;;36.40;19.10;;;;;;;-144.87;100.00;61487.56;4930456;29;20511;-76
2023/04/29 07:14:06;;;;;;;33.72;18.23;;;;;;;-144.87;100.00;61487.56;4930294;29;20106;-77
2023/04/29 07:16:33;;;;;;;37.80;18.42;;;;;;;-144.87;100.00;61487.56;4924733;29;20398;-77
2023/04/29 07:19:00;;;;;;;31.58;17.25;;;;;;;-144.87;100.00;61487.56;4914754;29;20040;-76
2023/04/29 07:21:27;;;;;;;29.75;17.13;;;;;;;-144.87;100.00;61487.56;4918861;29;20040;-76
2023/04/29 07:23:54;;;;;;;29.05;17.05;;;;;;;-144.87;100.00;61487.56;4914065;29;20044;-76
2023/04/29 07:26:20;;;;;;;39.83;17.83;;;;;;;-144.87;100.00;61487.56;4927946;29;21708;-77
2023/04/29 07:28:48;;;;;;;27.40;17.10;;;;;;;-144.87;100.00;61487.56;4927604;29;20315;-77
2023/04/29 07:31:15;;;;;;;35.40;15.88;;;;;;;-144.87;100.00;61487.56;4930826;29;20043;-76
2023/04/29 07:33:41;;;;;;;28.98;16.23;;;;;;;-144.87;100.00;61487.56;4914570;29;20052;-77
2023/04/29 07:36:10;;;;;;;30.90;16.60;;;;;;;-144.87;100.00;61487.56;4915803;29;20032;-77
2023/04/29 07:38:36;;;;;;;32.83;16.95;;;;;;;-144.87;100.00;61487.56;4964826;28;20037;-77
2023/04/29 07:41:05;;;;;;;28.25;15.65;;;;;;;-144.87;100.00;61487.56;4930298;29;20075;-76
2023/04/29 07:43:32;;;;;;;30.55;15.85;;;;;;;-144.87;100.00;61487.56;4927492;29;20031;-77
2023/04/29 07:45:59;;;;;;;33.90;15.68;;;;;;;-144.87;100.00;61487.56;4911055;29;20028;-77
2023/04/29 07:48:25;;;;;;;29.88;15.35;;;;;;;-144.87;100.00;61487.56;4927575;29;20517;-76
2023/04/29 07:50:51;;;;;;;32.45;16.92;;;;;;;-144.87;100.00;61487.56;4916750;29;20051;-76
2023/04/29 07:53:18;;;;;;;31.85;16.77;;;;;;;-144.87;100.00;61487.56;4931364;29;20150;-76
2023/04/29 07:55:44;;;;;;;29.83;16.58;;;;;;;-144.87;100.00;61487.56;4908670;29;20046;-77
2023/04/29 07:58:10;;;;;;;27.08;14.43;;;;;;;-144.87;100.00;61487.56;4916600;29;20044;-76
2023/04/29 08:00:37;;;;;;;32.63;16.48;;;;;;;-144.87;100.00;61487.56;4914502;29;20047;-76
2023/04/29 08:03:05;;;;;;;23.00;14.18;;;;;;;-144.87;100.00;61487.56;4913208;29;20417;-78
2023/04/29 08:05:31;;;;;;;28.50;15.73;;;;;;;-144.87;100.00;61487.56;4932523;29;20054;-77
2023/04/29 08:07:57;;;;;;;28.85;14.63;;;;;;;-144.87;100.00;61487.56;4918771;29;20035;-76
2023/04/29 08:10:26;;;;;;;23.63;14.02;;;;;;;-144.87;100.00;61487.56;4941797;29;20114;-76
2023/04/29 08:12:52;;;;;;;23.83;14.93;;;;;;;-144.87;100.00;61487.56;4924482;29;20458;-78
2023/04/29 08:15:19;;;;;;;27.95;13.88;;;;;;;-144.87;100.00;61487.56;4911524;29;20502;-77
2023/04/29 08:17:45;;;;;;;21.60;13.52;;;;;;;-144.87;100.00;61487.56;4913946;29;20077;-78
2023/04/29 08:20:12;;;;;;;22.73;14.68;;;;;;;-144.87;100.00;61487.56;4916742;29;20035;-77
2023/04/29 08:22:38;;;;;;;24.15;14.25;;;;;;;-144.87;100.00;61487.56;4916083;29;20036;-77
2023/04/29 08:25:05;;;;;;;22.25;13.50;;;;;;;-144.87;100.00;61487.56;4932605;29;20040;-78
2023/04/29 08:27:31;;;;;;;21.08;13.10;;;;;;;-144.87;100.00;61487.56;4913381;29;20501;-77
2023/04/29 08:29:58;;;;;;;32.28;14.48;;;;;;;-144.87;100.00;61487.56;4914860;29;20052;-76
2023/04/29 08:32:24;;;;;;;24.10;14.43;;;;;;;-144.87;100.00;61487.56;4901884;29;20120;-79
2023/04/29 08:34:50;;;;;;;24.10;12.98;;;;;;;-144.87;100.00;61487.56;4912034;29;20043;-77
2023/04/29 08:37:17;;;;;;;23.15;12.57;;;;;;;-144.87;100.00;61487.56;4917192;29;20091;-77
2023/04/29 08:39:45;;;;;;;22.50;12.80;;;;;;;-144.87;100.00;61487.56;4932181;29;20061;-77
2023/04/29 08:42:12;;;;;;;27.58;12.15;;;;;;;-144.87;100.00;61487.56;4927686;29;20036;-77
2023/04/29 08:44:40;;;;;;;27.10;12.35;;;;;;;-144.87;100.00;61487.56;4930751;29;20118;-76
2023/04/29 08:47:06;;;;;;;24.50;12.57;;;;;;;-144.87;100.00;61487.56;4928332;29;20063;-77
2023/04/29 08:49:32;;;;;;;21.00;11.43;;;;;;;-144.87;100.00;61487.56;4895820;29;20031;-76
2023/04/29 08:51:59;;;;;;;26.63;12.45;;;;;;;-144.87;100.00;61487.56;4947818;28;20521;-77
2023/04/29 08:54:27;;;;;;;18.90;10.65;;;;;;;-144.87;100.00;61487.56;4927553;29;20039;-77
2023/04/29 08:56:55;;;;;;;16.67;9.52;;;;;;;-144.87;100.00;61487.56;4920047;29;20042;-77
2023/04/29 08:59:22;;;;;;;19.17;11.65;;;;;;;-144.87;100.00;61487.56;4932169;29;20063;-77
2023/04/29 09:01:51;;;;;;;18.65;10.35;;;;;;;-144.87;100.00;61487.56;4914120;29;20054;-77
2023/04/29 09:04:28;;;;;;;21.08;10.00;;;;;;;-144.87;100.00;61487.56;4933266;29;20050;-77
2023/04/29 09:06:56;;;;;;;17.52;9.60;;;;;;;-144.87;100.00;61487.56;4896519;29;20031;-78
2023/04/29 09:09:24;;;;;;;17.77;9.38;;;;;;;-144.87;100.00;61487.56;4929917;29;20433;-77
2023/04/29 09:11:50;;;;;;;19.30;10.52;;;;;;;-144.87;100.00;61487.56;4930049;29;20515;-78
2023/04/29 09:14:16;;;;;;;19.02;10.05;;;;;;;-144.87;100.00;61487.56;4931673;29;20064;-78
2023/04/29 09:16:46;;;;;;;16.27;10.52;;;;;;;-144.87;100.00;61487.56;4932081;29;20036;-78
2023/04/29 09:19:29;;;;;;;19.60;10.30;;;;;;;-144.87;100.00;61487.56;4921737;29;20426;-77
2023/04/29 09:21:56;;;;;;;17.75;9.38;;;;;;;-144.87;100.00;61487.56;4936363;29;20516;-78
2023/04/29 09:24:26;;;;;;;17.05;9.45;;;;;;;-144.87;100.00;61487.56;4931231;29;20071;-76
2023/04/29 09:26:53;;;;;;;16.65;9.43;;;;;;;-144.87;100.00;61487.56;4924609;29;20059;-77
2023/04/29 09:29:20;;;;;;;21.13;10.05;;;;;;;-144.87;100.00;61487.56;4938308;29;20055;-76
2023/04/29 09:31:47;;;;;;;16.77;9.45;;;;;;;-144.87;100.00;61487.56;4929488;29;20039;-77
2023/04/29 09:34:15;;;;;;;15.77;9.68;;;;;;;-144.87;100.00;61487.56;4920820;29;20036;-77
2023/04/29 09:36:53;;;;;;;15.23;9.57;;;;;;;-144.87;100.00;61487.56;4920008;29;20039;-78
2023/04/29 09:39:21;;;;;;;18.42;9.80;;;;;;;-144.87;100.00;61487.56;4931639;29;20382;-78
2023/04/29 09:41:53;;;;;;;17.25;9.98;;;;;;;-144.87;100.00;61487.56;4919625;29;20085;-77
2023/04/29 09:44:30;;;;;;;16.10;10.02;;;;;;;-144.87;100.00;61487.56;4932266;29;20040;-77
2023/04/29 09:47:01;;;;;;;18.15;9.20;;;;;;;-144.87;100.00;61487.56;4944960;29;20107;-76
2023/04/29 09:49:40;;;;;;;17.65;9.98;;;;;;;-144.87;100.00;61487.56;4931284;29;20039;-78
2023/04/29 09:52:10;;;;;;;18.75;9.30;;;;;;;-144.87;100.00;61487.56;4912421;29;20056;-78
2023/04/29 09:54:38;;;;;;;17.73;9.70;;;;;;;-144.87;100.00;61487.56;4930358;29;20075;-76
2023/04/29 09:57:06;;;;;;;16.98;9.85;;;;;;;-144.87;100.00;61487.56;4920121;29;20377;-77
2023/04/29 09:59:35;;;;;;;18.55;10.45;;;;;;;-144.87;100.00;61487.56;4906054;29;20501;-77
2023/04/29 10:02:06;;;;;;;15.95;10.27;;;;;;;-144.87;100.00;61487.56;4924848;29;20036;-77
2023/04/29 10:04:35;;;;;;;15.93;9.85;;;;;;;-144.87;100.00;61487.56;4932675;29;20404;-76
2023/04/29 10:07:01;;;;;;;18.20;10.45;;;;;;;-144.87;100.00;61487.56;4915824;29;20291;-78
2023/04/29 10:09:28;;;;;;;23.63;11.77;;;;;;;-144.87;100.00;61487.56;4931759;29;20031;-77
2023/04/29 10:11:54;;;;;;;20.67;10.05;;;;;;;-144.87;100.00;61487.56;4933762;29;20449;-78
2023/04/29 10:14:23;;;;;;;17.90;9.82;;;;;;;-144.87;100.00;61487.56;4899742;29;20645;-78
2023/04/29 10:16:56;;;;;;;18.55;12.60;;;;;;;-144.87;100.00;61487.56;4931698;29;20489;-78
2023/04/29 10:19:47;;;;;;;17.10;10.27;;;;;;;-144.87;100.00;61487.56;4934601;29;20035;-77
2023/04/29 10:22:21;;;;;;;13.32;8.93;;;;;;;-144.87;100.00;61487.56;4919676;29;20405;-76
2023/04/29 10:24:48;;;;;;;14.05;8.95;;;;;;;-144.87;100.00;61487.56;4933633;29;20063;-77
2023/04/29 10:27:15;;;;;;;14.65;8.52;;;;;;;-144.87;100.00;61487.56;4933294;29;20479;-77
2023/04/29 10:29:42;;;;;;;15.20;9.60;;;;;;;-144.87;100.00;61487.56;4902500;29;20043;-77
2023/04/29 10:32:12;;;;;;;17.95;9.68;;;;;;;-144.87;100.00;61487.56;4918155;29;20092;-77
2023/04/29 10:34:39;;;;;;;16.58;9.57;;;;;;;-144.87;100.00;61487.56;4934056;29;20453;-78
2023/04/29 10:37:11;;;;;;;13.15;8.15;;;;;;;-144.87;100.00;61487.56;4928093;29;20043;-77
2023/04/29 10:40:06;;;;;;;14.52;7.85;;;;;;;-144.87;100.00;61487.56;4933876;29;20506;-77
2023/04/29 10:42:42;;;;;;;12.40;7.78;;;;;;;-144.87;100.00;61487.56;4931484;29;20480;-77
2023/04/29 10:45:30;;;;;;;12.73;8.00;;;;;;;-144.87;100.00;61487.56;4919826;29;20164;-77
2023/04/29 10:48:05;;;;;;;11.35;8.10;;;;;;;-144.87;100.00;61487.56;4917166;29;20047;-78
2023/04/29 10:50:33;;;;;;;11.68;6.90;;;;;;;-144.87;100.00;61487.56;4923327;29;20036;-78
2023/04/29 10:53:03;;;;;;;9.40;6.10;;;;;;;-144.87;100.00;61487.56;4911925;29;20695;-77
2023/04/29 10:55:30;;;;;;;13.68;8.23;;;;;;;-144.87;100.00;61487.56;4932391;29;20047;-77
2023/04/29 10:57:57;;;;;;;16.90;8.45;;;;;;;-144.87;100.00;61487.56;4900078;29;20174;-77
2023/04/29 11:00:32;;;;;;;8.65;5.13;;;;;;;-144.87;100.00;61487.56;4916071;29;20130;-77
2023/04/29 11:02:59;;;;;;;10.82;6.57;;;;;;;-144.87;100.00;61487.56;4916633;29;20044;-77
2023/04/29 11:05:32;;;;;;;8.60;4.55;;;;;;;-144.87;100.00;61487.56;4932095;29;20047;-78